createdAt,value
2018-11-27T00:08:07.250Z,35.73
2018-11-27T00:28:31.698Z,39.03
2018-11-27T00:57:41.817Z,36.15
2018-11-27T01:18:11.764Z,37.13
2018-11-27T01:20:43.821Z,39.18
2018-11-27T01:23:15.797Z,44.73
2018-11-27T01:25:47.865Z,40.48
2018-11-27T01:28:19.857Z,46.70
2018-11-27T01:30:51.977Z,40.55
2018-11-27T01:33:23.984Z,44.80
2018-11-27T01:35:56.001Z,50.78
2018-11-27T01:38:28.001Z,47.70
2018-11-27T01:41:00.310Z,49.35
2018-11-27T01:43:32.357Z,45.98
2018-11-27T01:46:04.736Z,50.60
2018-11-27T02:06:21.725Z,49.40
2018-11-27T02:08:53.753Z,51.23
2018-11-27T02:11:25.756Z,52.95
2018-11-27T02:13:57.828Z,54.20
2018-11-27T02:16:29.832Z,51.50
2018-11-27T02:19:01.795Z,47.83
2018-11-27T02:39:19.325Z,45.88
2018-11-27T02:41:51.305Z,53.83
2018-11-27T02:44:23.290Z,48.90
2018-11-27T02:46:55.314Z,45.75
2018-11-27T02:49:27.268Z,49.58
2018-11-27T03:09:45.236Z,55.67
2018-11-27T03:12:17.210Z,49.35
2018-11-27T03:14:49.173Z,48.85
2018-11-27T03:17:21.208Z,52.65
2018-11-27T03:19:53.301Z,45.80
2018-11-27T03:22:25.805Z,50.23
2018-11-27T03:42:43.033Z,45.35
2018-11-27T03:45:15.531Z,55.67
2018-11-27T03:47:47.594Z,57.75
2018-11-27T03:50:28.274Z,51.42
2018-11-27T03:53:00.328Z,43.10
2018-11-27T03:55:32.333Z,47.13
2018-11-27T03:58:04.396Z,48.02
2018-11-27T04:00:36.494Z,48.28
2018-11-27T04:03:10.757Z,47.45
2018-11-27T04:05:42.849Z,48.68
2018-11-27T04:08:14.805Z,46.08
2018-11-27T04:10:46.792Z,38.23
2018-11-27T04:13:18.770Z,46.55
2018-11-27T04:15:50.769Z,53.13
2018-11-27T04:18:22.801Z,50.28
2018-11-27T04:20:54.866Z,55.55
2018-11-27T04:23:26.950Z,49.23
2018-11-27T04:25:58.993Z,50.03
2018-11-27T04:28:30.990Z,46.05
2018-11-27T04:51:45.549Z,45.35
2018-11-27T04:54:17.631Z,45.25
2018-11-27T04:56:49.644Z,48.40
2018-11-27T04:59:21.599Z,44.25
2018-11-27T05:01:53.685Z,47.27
2018-11-27T05:04:26.245Z,42.78
2018-11-27T05:06:58.261Z,52.33
2018-11-27T05:09:30.256Z,40.60
2018-11-27T05:12:02.305Z,41.33
2018-11-27T05:14:34.382Z,49.63
2018-11-27T05:17:06.525Z,42.65
2018-11-27T05:19:38.530Z,43.00
2018-11-27T05:22:10.525Z,44.70
2018-11-27T05:24:42.532Z,44.48
2018-11-27T05:27:14.617Z,46.88
2018-11-27T05:29:46.650Z,42.80
2018-11-27T05:32:18.730Z,47.45
2018-11-27T05:34:50.706Z,45.30
2018-11-27T05:37:23.017Z,43.33
2018-11-27T05:39:55.013Z,41.53
2018-11-27T05:42:27.076Z,45.98
2018-11-27T05:44:59.048Z,42.58
2018-11-27T05:47:31.141Z,48.68
2018-11-27T05:50:04.264Z,44.95
2018-11-27T05:52:36.251Z,47.98
2018-11-27T05:55:09.316Z,42.45
2018-11-27T05:57:41.985Z,40.65
2018-11-27T06:00:17.102Z,42.62
2018-11-27T06:02:50.641Z,45.08
2018-11-27T06:05:23.599Z,45.60
2018-11-27T06:07:55.603Z,43.05
2018-11-27T06:10:27.609Z,49.75
2018-11-27T06:12:59.684Z,42.78
2018-11-27T06:15:32.682Z,46.08
2018-11-27T06:35:57.329Z,47.40
2018-11-27T06:38:29.347Z,49.20
2018-11-27T06:41:01.358Z,48.42
2018-11-27T06:46:12.154Z,47.17
2018-11-27T06:48:44.189Z,50.28
2018-11-27T06:51:16.212Z,48.40
2018-11-27T06:53:48.240Z,44.53
2018-11-27T06:56:20.343Z,45.45
2018-11-27T07:16:36.908Z,40.15
2018-11-27T07:19:08.900Z,39.30
2018-11-27T07:21:40.905Z,39.18
2018-11-27T07:24:12.927Z,37.75
2018-11-27T07:26:44.904Z,43.10
2018-11-27T07:29:17.177Z,37.50
2018-11-27T07:31:49.956Z,44.65
2018-11-27T07:34:21.987Z,33.18
2018-11-27T07:36:53.995Z,38.63
2018-11-27T07:39:26.077Z,41.42
2018-11-27T07:41:58.155Z,38.83
2018-11-27T07:44:30.173Z,40.85
2018-11-27T07:47:02.176Z,35.68
2018-11-27T07:49:34.289Z,37.93
2018-11-27T08:09:52.171Z,33.60
2018-11-27T08:12:24.205Z,34.23
2018-11-27T08:32:41.431Z,35.15
2018-11-27T08:35:17.477Z,32.48
2018-11-27T08:37:51.425Z,32.25
2018-11-27T08:40:24.473Z,35.55
2018-11-27T08:42:56.508Z,29.00
2018-11-27T08:45:28.602Z,30.00
2018-11-27T08:48:00.634Z,25.60
2018-11-27T08:50:32.753Z,28.70
2018-11-27T08:53:06.126Z,32.35
2018-11-27T09:25:33.709Z,23.40
2018-11-27T09:28:05.705Z,24.87
2018-11-27T09:30:37.741Z,20.85
2018-11-27T09:33:09.795Z,25.12
2018-11-27T09:35:41.796Z,22.80
2018-11-27T09:55:58.470Z,20.10
2018-11-27T10:16:16.356Z,21.62
2018-11-27T10:36:34.497Z,23.52
2018-11-27T10:39:07.561Z,24.10
2018-11-27T10:41:39.593Z,25.80
2018-11-27T10:44:11.641Z,22.67
2018-11-27T10:46:43.744Z,24.07
2018-11-27T10:49:15.791Z,25.68
2018-11-27T11:03:44.951Z,23.22
2018-11-27T11:06:36.317Z,22.93
2018-11-27T11:21:04.086Z,25.48
2018-11-27T11:23:36.161Z,24.40
2018-11-27T11:35:11.622Z,26.05
2018-11-27T11:55:28.363Z,26.68
2018-11-27T11:58:00.445Z,28.23
2018-11-27T12:00:37.784Z,25.17
2018-11-27T12:03:09.839Z,23.00
2018-11-27T12:05:41.836Z,25.12
2018-11-27T12:25:59.124Z,27.98
2018-11-27T12:55:12.619Z,30.35
2018-11-27T13:15:29.499Z,24.65
2018-11-27T13:18:01.635Z,25.97
2018-11-27T13:20:33.821Z,28.42
2018-11-27T13:23:06.377Z,31.40
2018-11-27T13:25:39.045Z,28.70
2018-11-27T13:28:12.318Z,26.25
2018-11-27T13:30:50.201Z,25.27
2018-11-27T13:33:24.029Z,25.25
2018-11-27T13:35:56.264Z,30.68
2018-11-27T13:56:13.591Z,20.05
2018-11-27T13:58:45.662Z,22.15
2018-11-27T14:01:18.446Z,23.27
2018-11-27T14:03:50.546Z,19.07
2018-11-27T14:06:24.312Z,22.17
2018-11-27T14:08:56.441Z,23.35
2018-11-27T14:11:28.490Z,25.70
2018-11-27T14:31:46.201Z,17.32
2018-11-27T14:34:18.313Z,16.97
2018-11-27T14:36:50.455Z,20.25
2018-11-27T14:57:07.958Z,20.85
2018-11-27T15:17:24.908Z,18.10
2018-11-27T15:19:56.977Z,20.27
2018-11-27T15:22:29.069Z,23.22
2018-11-27T15:25:01.154Z,23.22
2018-11-27T15:27:33.286Z,20.00
2018-11-27T15:30:13.764Z,21.07
2018-11-27T15:50:31.422Z,18.55
2018-11-27T15:53:03.905Z,19.30
2018-11-27T15:55:37.667Z,21.50
2018-11-27T15:58:11.861Z,19.90
2018-11-27T16:00:43.921Z,21.50
2018-11-27T16:03:15.891Z,20.30
2018-11-27T16:05:47.973Z,20.48
2018-11-27T16:08:19.958Z,19.73
2018-11-27T16:10:52.001Z,19.73
2018-11-27T16:13:24.029Z,20.95
2018-11-27T16:15:56.024Z,18.27
2018-11-27T16:18:28.065Z,23.75
2018-11-27T16:38:45.210Z,22.02
2018-11-27T16:59:03.573Z,15.25
2018-11-27T17:19:20.456Z,20.05
2018-11-27T17:21:52.532Z,18.82
2018-11-27T17:42:10.482Z,17.65
2018-11-27T18:02:28.829Z,16.77
2018-11-27T18:22:45.199Z,19.90
2018-11-27T18:25:18.141Z,17.62
2018-11-27T18:27:50.275Z,19.92
2018-11-27T18:30:22.873Z,22.10
2018-11-27T18:41:47.615Z,23.25
2018-11-27T18:44:19.699Z,32.85
2018-11-27T18:46:52.034Z,87.05
2018-11-27T18:49:24.207Z,21.37
2018-11-27T18:51:56.294Z,24.37
2018-11-27T18:54:28.358Z,22.13
2018-11-27T18:57:00.435Z,22.65
2018-11-27T18:59:32.548Z,23.85
2018-11-27T19:02:05.375Z,23.22
2018-11-27T19:04:37.463Z,20.40
2018-11-27T19:07:11.519Z,24.23
2018-11-27T19:09:43.683Z,22.10
2018-11-27T19:12:15.810Z,26.35
2018-11-27T19:14:47.988Z,23.22
2018-11-27T19:17:20.093Z,22.15
2018-11-27T19:19:52.174Z,24.63
2018-11-27T19:22:25.318Z,23.22
2018-11-27T19:24:58.408Z,26.42
2018-11-27T19:27:30.593Z,23.57
2018-11-27T19:30:03.458Z,28.70
2018-11-27T19:32:35.632Z,22.87
2018-11-27T19:35:09.325Z,22.07
2018-11-27T19:37:41.446Z,27.37
2018-11-27T19:40:14.788Z,28.40
2018-11-27T19:42:46.905Z,23.62
2018-11-27T19:45:22.197Z,23.77
2018-11-27T19:47:54.921Z,28.00
2018-11-27T19:50:27.014Z,24.35
2018-11-27T19:52:59.535Z,26.15
2018-11-27T19:55:39.229Z,24.60
2018-11-27T19:58:11.355Z,24.70
2018-11-27T20:00:43.487Z,28.32
2018-11-27T20:03:15.683Z,21.82
2018-11-27T20:05:48.787Z,22.00
2018-11-27T20:08:21.034Z,26.50
2018-11-27T20:10:53.114Z,27.20
2018-11-27T20:13:25.213Z,28.05
2018-11-27T20:15:57.990Z,22.80
2018-11-27T20:18:30.131Z,29.77
2018-11-27T20:21:02.403Z,24.98
2018-11-27T20:23:34.482Z,26.65
2018-11-27T20:26:06.518Z,28.60
2018-11-27T20:28:38.593Z,27.40
2018-11-27T20:31:10.710Z,31.68
2018-11-27T20:33:42.830Z,35.85
2018-11-27T20:36:14.915Z,26.50
2018-11-27T20:38:46.959Z,24.07
2018-11-27T20:41:19.035Z,28.80
2018-11-27T20:43:51.128Z,26.55
2018-11-27T20:46:23.246Z,25.70
2018-11-27T20:48:55.287Z,25.20
2018-11-27T20:51:27.438Z,20.50
2018-11-27T20:53:59.636Z,22.50
2018-11-27T20:56:31.771Z,27.95
2018-11-27T20:59:04.060Z,21.95
2018-11-27T21:01:36.303Z,23.25
2018-11-27T21:04:08.466Z,26.17
2018-11-27T21:06:40.664Z,24.57
2018-11-27T21:09:12.923Z,23.67
2018-11-27T21:11:45.001Z,21.65
2018-11-27T21:14:17.069Z,22.02
2018-11-27T21:16:49.153Z,22.87
2018-11-27T21:19:21.292Z,22.82
2018-11-27T21:21:53.365Z,26.48
2018-11-27T21:24:25.548Z,25.97
2018-11-27T21:26:57.738Z,23.80
2018-11-27T21:29:29.897Z,30.50
2018-11-27T21:32:01.970Z,30.70
2018-11-27T21:34:34.129Z,24.57
2018-11-27T21:37:06.319Z,31.75
2018-11-27T21:39:38.391Z,34.40
2018-11-27T21:42:10.565Z,24.60
2018-11-27T21:44:42.679Z,29.75
2018-11-27T21:47:14.774Z,26.55
2018-11-27T21:49:46.874Z,26.93
2018-11-27T21:52:19.006Z,26.23
2018-11-27T21:54:51.078Z,23.22
2018-11-27T21:57:23.172Z,32.10
2018-11-27T21:59:55.285Z,23.73
2018-11-27T22:02:27.453Z,26.37
2018-11-27T22:04:59.611Z,25.50
2018-11-27T22:07:31.646Z,25.90
2018-11-27T22:10:07.281Z,26.27
2018-11-27T22:12:40.315Z,31.52
2018-11-27T22:15:30.822Z,28.95
2018-11-27T22:18:03.926Z,36.88
2018-11-27T22:20:36.189Z,31.60
2018-11-27T22:23:08.766Z,39.63
2018-11-27T22:25:40.897Z,32.13
2018-11-27T22:28:19.739Z,35.98
2018-11-27T22:30:51.766Z,31.37
2018-11-27T22:33:23.834Z,34.43
2018-11-27T22:35:55.905Z,33.70
2018-11-27T22:38:27.991Z,32.35
2018-11-27T22:41:00.058Z,31.62
2018-11-27T22:43:32.103Z,32.98
2018-11-27T22:46:04.447Z,36.75
2018-11-27T22:48:36.551Z,32.95
2018-11-27T22:51:08.616Z,31.93
2018-11-27T22:53:40.665Z,36.25
2018-11-27T22:56:12.818Z,35.13
2018-11-27T22:58:44.881Z,43.02
2018-11-27T23:01:16.998Z,40.05
2018-11-27T23:03:49.057Z,31.35
2018-11-27T23:06:21.109Z,33.55
2018-11-27T23:08:53.230Z,39.67
2018-11-27T23:11:25.262Z,32.50
2018-11-27T23:13:57.292Z,37.15
2018-11-27T23:16:29.359Z,41.65
2018-11-27T23:19:01.425Z,41.68
2018-11-27T23:21:33.486Z,44.08
2018-11-27T23:24:05.586Z,32.25
2018-11-27T23:26:37.747Z,36.80
2018-11-27T23:29:09.826Z,37.42
2018-11-27T23:31:41.890Z,37.95
2018-11-27T23:34:13.930Z,36.55
2018-11-27T23:36:45.957Z,36.30
2018-11-27T23:39:17.973Z,37.13
2018-11-27T23:41:50.126Z,38.65
2018-11-27T23:44:22.144Z,44.20
2018-11-27T23:46:54.200Z,37.85
2018-11-27T23:49:26.275Z,36.35
2018-11-27T23:51:58.313Z,27.87
2018-11-27T23:54:30.395Z,39.80
2018-11-27T23:57:02.563Z,37.93
2018-11-27T23:59:34.758Z,40.45
